Time;durP1;ratioP1;P1;durP2;ratioP2;P2;SDS_P1;SDS_P2;PMS_P1;PMS_P2;Temp;Humidity;BMP_temperature;BMP_pressure;BME280_temperature;BME280_humidity;BME280_pressure;Samples;Min_cycle;Max_cycle;Signal;HPM_P1;HPM_P2
2022/11/14 00:00:14;;;;;;;;;51.00;39.00;;;;;15.77;48.95;100290.22;4856854;29;8879;-84
2022/11/14 00:03:11;;;;;;;;;37.75;34.75;;;;;15.88;48.44;100282.22;4839292;29;8936;-84
2022/11/14 00:05:59;;;;;;;;;44.50;38.25;;;;;15.95;48.21;100283.91;4855959;29;8886;-83
2022/11/14 00:08:46;;;;;;;;;43.00;36.75;;;;;15.95;48.46;100291.81;4850437;29;8895;-84
2022/11/14 00:11:35;;;;;;;;;49.75;39.75;;;;;15.91;48.69;100287.44;4842001;29;8982;-83
2022/11/14 00:14:22;;;;;;;;;42.75;36.50;;;;;15.84;48.48;100290.13;4857368;29;8890;-84
2022/11/14 00:17:09;;;;;;;;;40.25;34.50;;;;;15.60;48.97;100290.34;4860960;29;8899;-83
2022/11/14 00:19:56;;;;;;;;;48.00;36.25;;;;;15.57;49.26;100286.84;4880178;29;8871;-83
2022/11/14 00:22:44;;;;;;;;;40.00;36.75;;;;;15.56;49.38;100287.75;4863814;29;8942;-84
2022/11/14 00:25:32;;;;;;;;;44.50;36.25;;;;;15.52;49.76;100294.81;4876248;29;8893;-82
2022/11/14 00:28:21;;;;;;;;;52.25;40.25;;;;;15.68;49.15;100294.66;4859887;29;8875;-83
2022/11/14 00:31:09;;;;;;;;;45.75;38.25;;;;;15.82;48.74;100289.28;4860075;29;8859;-81
2022/11/14 00:33:57;;;;;;;;;47.50;38.50;;;;;15.93;48.35;100287.41;4853000;29;8898;-83
2022/11/14 00:36:44;;;;;;;;;48.25;37.50;;;;;15.96;48.03;100279.50;4841807;29;8904;-82
2022/11/14 00:39:32;;;;;;;;;46.50;40.25;;;;;15.89;48.16;100278.69;4911687;29;8873;-83
2022/11/14 00:42:19;;;;;;;;;49.00;42.50;;;;;15.91;48.22;100278.69;4894392;29;8869;-82
2022/11/14 00:45:09;;;;;;;;;48.00;39.00;;;;;15.81;49.17;100283.16;4876705;29;8877;-82
2022/11/14 00:47:56;;;;;;;;;55.50;40.00;;;;;15.83;48.58;100277.91;4883566;29;8869;-82
2022/11/14 00:50:44;;;;;;;;;45.00;38.50;;;;;15.82;48.79;100274.38;4887207;29;8999;-86
2022/11/14 00:53:31;;;;;;;;;47.25;39.00;;;;;15.83;48.64;100276.13;4900531;29;8927;-82
2022/11/14 00:56:19;;;;;;;;;56.00;43.75;;;;;15.82;48.77;100277.00;4917161;29;8873;-83
2022/11/14 00:59:06;;;;;;;;;51.50;39.75;;;;;15.84;48.53;100264.72;4855042;29;8983;-84
2022/11/14 01:01:56;;;;;;;;;40.25;33.75;;;;;15.91;48.65;100268.16;4864434;29;9056;-84
2022/11/14 01:04:44;;;;;;;;;49.75;39.75;;;;;15.91;48.34;100271.66;4858905;29;8907;-85
2022/11/14 01:07:32;;;;;;;;;51.25;43.50;;;;;15.90;48.04;100269.91;4838260;29;8908;-83
2022/11/14 01:10:19;;;;;;;;;47.75;39.00;;;;;15.91;48.63;100262.91;4845530;29;8977;-83
2022/11/14 01:13:07;;;;;;;;;55.25;43.50;;;;;15.92;48.46;100265.50;4799729;29;8872;-83
2022/11/14 01:15:54;;;;;;;;;53.25;44.00;;;;;15.90;48.46;100261.16;4821228;29;8919;-83
2022/11/14 01:18:43;;;;;;;;;50.50;43.00;;;;;15.83;48.96;100262.97;4828371;29;8900;-83
2022/11/14 01:21:31;;;;;;;;;55.50;45.50;;;;;15.83;48.46;100257.72;4813272;29;8904;-85
2022/11/14 01:24:18;;;;;;;;;43.00;37.75;;;;;15.76;48.54;100249.03;4810051;29;8896;-84
2022/11/14 01:27:06;;;;;;;;;52.75;42.50;;;;;15.69;49.20;100251.69;4803059;29;8892;-82
2022/11/14 01:29:53;;;;;;;;;53.25;44.00;;;;;15.70;49.14;100245.56;4804990;29;8868;-83
2022/11/14 01:32:40;;;;;;;;;50.00;41.25;;;;;15.68;48.85;100247.34;4815885;29;8876;-84
2022/11/14 01:35:29;;;;;;;;;52.75;43.00;;;;;15.69;48.97;100254.31;4841518;29;8884;-84
2022/11/14 01:38:16;;;;;;;;;51.75;42.50;;;;;15.66;48.84;100254.38;4842657;29;8921;-84
2022/11/14 01:41:05;;;;;;;;;48.00;41.00;;;;;15.56;49.43;100250.97;4843376;29;8891;-84
2022/11/14 01:43:53;;;;;;;;;53.75;42.50;;;;;15.56;49.27;100243.94;4852516;29;8875;-85
2022/11/14 01:46:43;;;;;;;;;55.00;42.25;;;;;15.58;49.41;100247.41;4856089;29;8891;-85
2022/11/14 01:49:38;;;;;;;;;52.00;43.25;;;;;15.68;49.27;100232.41;4854234;29;8985;-85
2022/11/14 01:52:31;;;;;;;;;36.50;35.50;;;;;15.66;49.48;100233.34;4862490;29;8898;-83
2022/11/14 01:55:18;;;;;;;;;55.00;42.25;;;;;15.60;49.25;100229.88;4847419;29;8894;-84
2022/11/14 01:58:06;;;;;;;;;52.50;41.75;;;;;15.62;49.35;100226.38;4859671;29;9445;-85
2022/11/14 02:00:54;;;;;;;;;55.25;42.00;;;;;15.60;49.22;100221.97;4858357;29;8892;-84
2022/11/14 02:03:44;;;;;;;;;56.75;45.50;;;;;15.62;49.12;100231.63;4855810;29;8889;-82
2022/11/14 02:06:33;;;;;;;;;11.75;9.25;;;;;15.55;49.14;100222.91;4857044;29;8940;-82
2022/11/14 02:09:22;;;;;;;;;47.75;39.50;;;;;15.54;49.25;100216.78;4862306;29;8991;-82
2022/11/14 02:12:14;;;;;;;;;47.75;38.50;;;;;15.46;49.58;100225.63;4864793;29;8998;-85
2022/11/14 02:15:02;;;;;;;;;46.00;39.50;;;;;15.44;49.95;100230.03;4864291;29;8987;-84
2022/11/14 02:17:49;;;;;;;;;49.50;40.75;;;;;15.45;49.40;100232.66;4849329;29;8892;-84
2022/11/14 02:20:42;;;;;;;;;48.75;40.75;;;;;15.44;49.69;100228.25;4863527;29;8915;-84
2022/11/14 02:23:31;;;;;;;;;54.50;43.75;;;;;15.37;49.73;100219.59;4844847;29;8916;-84
2022/11/14 02:26:19;;;;;;;;;53.25;42.50;;;;;15.02;50.88;100219.88;4872578;29;9007;-87
2022/11/14 02:29:07;;;;;;;;;57.75;46.25;;;;;14.71;52.06;100222.72;4855927;29;8905;-85
2022/11/14 02:31:54;;;;;;;;;55.00;45.00;;;;;14.16;53.49;100226.50;4854848;29;8885;-83
2022/11/14 02:34:42;;;;;;;;;56.75;45.00;;;;;13.52;56.02;100235.41;4874003;29;9077;-84
2022/11/14 02:37:31;;;;;;;;;58.00;45.25;;;;;13.84;54.73;100230.09;4873893;29;8989;-85
2022/11/14 02:40:18;;;;;;;;;62.50;48.75;;;;;14.19;53.66;100220.34;4875415;29;8973;-85
2022/11/14 02:43:06;;;;;;;;;60.50;47.25;;;;;14.39;52.72;100226.38;4875176;29;9014;-85
2022/11/14 02:45:53;;;;;;;;;57.50;46.50;;;;;14.51;52.68;100220.19;4859788;29;8870;-85
2022/11/14 02:48:41;;;;;;;;;62.75;49.00;;;;;14.23;53.40;100224.69;4875035;29;8902;-85
2022/11/14 02:51:28;;;;;;;;;58.75;47.00;;;;;14.21;52.97;100224.75;4875595;29;8879;-86
2022/11/14 02:54:17;;;;;;;;;53.00;44.25;;;;;13.86;54.25;100227.47;4875493;29;8901;-86
2022/11/14 02:57:04;;;;;;;;;60.50;48.75;;;;;13.68;54.92;100231.00;4860212;29;8891;-85
2022/11/14 02:59:52;;;;;;;;;64.00;50.00;;;;;13.69;54.13;100224.91;4861106;29;10157;-86
2022/11/14 03:02:39;;;;;;;;;56.25;45.25;;;;;13.05;56.56;100231.91;4879569;29;8871;-84
2022/11/14 03:05:27;;;;;;;;;54.00;41.75;;;;;12.90;57.26;100231.03;4884754;29;8876;-85
2022/11/14 03:08:14;;;;;;;;;52.25;44.75;;;;;12.97;57.52;100233.66;4880716;29;8948;-85
2022/11/14 03:11:06;;;;;;;;;49.75;41.50;;;;;13.09;57.04;100224.06;4873468;29;8906;-87
2022/11/14 03:13:53;;;;;;;;;64.25;48.75;;;;;13.34;55.25;100227.56;4847530;29;8955;-85
2022/11/14 03:16:40;;;;;;;;;55.25;44.00;;;;;13.50;54.79;100228.44;4862721;29;8879;-85
2022/11/14 03:19:27;;;;;;;;;56.00;45.75;;;;;13.64;54.18;100219.66;4841806;29;8889;-85
2022/11/14 03:22:15;;;;;;;;;59.50;48.50;;;;;13.84;53.67;100224.84;4856583;29;9114;-85
2022/11/14 03:25:02;;;;;;;;;59.00;47.50;;;;;13.96;53.49;100216.06;4859708;29;8883;-83
2022/11/14 03:27:51;;;;;;;;;57.00;47.00;;;;;14.10;53.14;100209.91;4854982;29;9086;-83
2022/11/14 03:30:39;;;;;;;;;59.00;45.50;;;;;14.17;52.71;100207.25;4855472;29;8891;-84
2022/11/14 03:33:26;;;;;;;;;60.00;46.75;;;;;14.22;52.77;100209.88;4830018;29;8879;-87
2022/11/14 03:36:14;;;;;;;;;58.50;47.75;;;;;14.24;52.19;100214.22;4855357;29;8895;-83
2022/11/14 03:39:01;;;;;;;;;60.00;45.75;;;;;14.26;52.00;100208.97;4835048;29;8869;-85
2022/11/14 03:41:48;;;;;;;;;58.50;49.50;;;;;14.27;51.95;100209.81;4848043;29;9796;-85
2022/11/14 03:44:37;;;;;;;;;52.00;42.50;;;;;14.23;52.24;100211.59;4840040;29;9013;-86
2022/11/14 03:47:24;;;;;;;;;59.00;48.50;;;;;14.22;52.46;100205.47;4870598;29;9714;-86
2022/11/14 03:50:12;;;;;;;;;57.25;46.50;;;;;14.22;52.09;100202.84;4864274;29;8889;-87
2022/11/14 03:52:59;;;;;;;;;58.75;46.75;;;;;14.23;51.88;100203.72;4878347;29;8878;-85
2022/11/14 03:55:47;;;;;;;;;54.50;43.75;;;;;13.94;53.14;100193.38;4880550;29;8885;-85
2022/11/14 03:58:34;;;;;;;;;59.00;47.50;;;;;13.82;53.56;100199.53;4904559;29;8887;-83
2022/11/14 04:01:23;;;;;;;;;55.75;44.75;;;;;13.74;53.97;100209.16;4921839;29;8891;-85
2022/11/14 04:04:12;;;;;;;;;58.25;46.75;;;;;13.80;53.64;100207.41;4905830;29;8904;-83
2022/11/14 04:06:59;;;;;;;;;58.25;46.50;;;;;13.87;53.28;100202.13;4896600;29;8869;-83
2022/11/14 04:09:46;;;;;;;;;60.75;49.00;;;;;13.72;53.77;100203.91;4895563;29;9793;-82
2022/11/14 04:12:34;;;;;;;;;58.00;48.25;;;;;13.79;53.46;100205.63;4895086;29;8939;-83
2022/11/14 04:15:21;;;;;;;;;58.00;45.25;;;;;13.83;53.28;100206.50;4886863;29;8981;-82
2022/11/14 04:18:10;;;;;;;;;61.75;50.50;;;;;13.90;53.12;100205.63;4880924;29;8862;-84
2022/11/14 04:20:57;;;;;;;;;59.75;46.50;;;;;13.93;52.77;100197.75;4869454;29;8906;-83
2022/11/14 04:23:44;;;;;;;;;62.50;50.50;;;;;13.97;52.66;100199.47;4874340;29;8883;-85
2022/11/14 04:26:31;;;;;;;;;78.00;61.00;;;;;13.96;52.42;100202.97;4873963;29;8976;-81
2022/11/14 04:29:19;;;;;;;;;62.50;51.00;;;;;13.96;52.50;100194.22;4858175;29;8889;-83
2022/11/14 04:32:06;;;;;;;;;63.25;49.00;;;;;13.96;52.81;100189.00;4850848;29;8885;-84
2022/11/14 04:34:55;;;;;;;;;62.25;50.00;;;;;13.96;52.63;100199.47;4809371;29;9612;-86
2022/11/14 04:37:43;;;;;;;;;59.25;48.75;;;;;13.98;52.54;100195.09;4860652;29;8892;-86
2022/11/14 04:40:30;;;;;;;;;89.75;79.00;;;;;14.03;52.53;100190.72;4861668;29;8880;-86
2022/11/14 04:43:18;;;;;;;;;64.00;51.75;;;;;14.00;52.64;100183.72;4846608;29;9615;-85
2022/11/14 04:46:06;;;;;;;;;62.25;47.75;;;;;14.03;52.55;100188.09;4876216;29;8890;-84
2022/11/14 04:48:54;;;;;;;;;61.50;50.50;;;;;14.00;52.50;100183.72;4884903;29;8951;-84
2022/11/14 04:52:03;;;;;;;;;77.00;60.67;;;;;14.00;52.65;100186.34;4857118;29;8908;-84
2022/11/14 04:54:50;;;;;;;;;80.33;60.67;;;;;13.97;52.45;100188.09;4843126;29;8981;-86
2022/11/14 04:57:38;;;;;;;;;68.50;51.75;;;;;13.95;53.06;100188.13;4871080;29;9212;-83
2022/11/14 05:00:26;;;;;;;;;64.50;50.75;;;;;13.95;52.87;100184.59;4872782;29;8924;-85
2022/11/14 05:03:14;;;;;;;;;75.33;60.67;;;;;13.95;52.80;100193.38;4861211;29;9051;-84
2022/11/14 05:06:02;;;;;;;;;65.75;51.50;;;;;13.97;52.92;100190.72;4860117;29;9106;-84
2022/11/14 05:08:51;;;;;;;;;63.50;50.25;;;;;13.99;52.75;100187.22;4833966;29;8883;-84
2022/11/14 05:11:38;;;;;;;;;59.25;49.00;;;;;13.99;52.71;100191.59;4820397;29;8866;-85
2022/11/14 05:14:25;;;;;;;;;62.75;50.75;;;;;14.00;52.98;100198.59;4820707;29;8867;-85
2022/11/14 05:17:13;;;;;;;;;75.33;59.00;;;;;13.99;52.66;100196.84;4823413;29;8876;-86
2022/11/14 05:20:03;;;;;;;;;68.00;54.00;;;;;14.00;52.65;100198.59;4800215;29;9027;-86
2022/11/14 05:23:20;;;;;;;;;71.25;56.25;;;;;14.10;52.53;100205.56;4843070;29;8938;-84
2022/11/14 05:26:11;;;;;;;;;64.50;52.75;;;;;14.02;52.82;100204.69;4835525;29;8968;-88
2022/11/14 05:28:58;;;;;;;;;62.25;50.00;;;;;13.95;52.87;100198.63;4867297;29;8901;-85
2022/11/14 05:31:46;;;;;;;;;65.50;52.00;;;;;13.94;52.69;100209.09;4876832;29;8875;-84
2022/11/14 05:34:33;;;;;;;;;72.25;57.75;;;;;13.92;52.92;100201.22;4863395;29;8998;-82
2022/11/14 05:37:22;;;;;;;;;90.75;76.50;;;;;13.92;52.78;100210.84;4891532;29;8859;-86
2022/11/14 05:40:11;;;;;;;;;71.50;57.00;;;;;13.92;53.09;100205.63;4880314;29;10204;-84
2022/11/14 05:43:00;;;;;;;;;64.50;51.00;;;;;13.89;52.74;100206.47;4884677;29;8948;-85
2022/11/14 05:50:58;;;;;;;;;66.75;55.00;;;;;13.89;53.20;100213.47;4888294;29;9469;-83
2022/11/14 05:53:46;;;;;;;;;65.00;52.50;;;;;13.88;52.91;100207.38;4885235;29;8902;-84
2022/11/14 05:56:34;;;;;;;;;62.50;52.25;;;;;13.89;53.00;100218.72;4861046;29;8995;-86
2022/11/14 05:59:23;;;;;;;;;62.00;50.50;;;;;13.91;52.95;100217.81;4862151;29;8887;-86
2022/11/14 06:02:11;;;;;;;;;135.00;120.50;;;;;13.92;53.26;100208.25;4858410;29;8906;-84
2022/11/14 06:04:59;;;;;;;;;68.00;56.00;;;;;13.97;53.40;100204.72;4824789;29;11743;-84
2022/11/14 06:07:47;;;;;;;;;56.75;47.50;;;;;14.04;53.12;100211.69;4821233;29;8887;-84
2022/11/14 06:10:36;;;;;;;;;58.00;47.75;;;;;14.09;53.00;100211.66;4823610;29;8965;-87
2022/11/14 06:13:23;;;;;;;;;62.75;48.75;;;;;14.16;52.91;100217.75;4815119;29;8923;-85
2022/11/14 06:16:14;;;;;;;;;77.75;60.50;;;;;14.22;53.18;100220.34;4819691;29;8898;-83
2022/11/14 06:19:01;;;;;;;;;74.75;58.50;;;;;14.27;52.78;100226.44;4826756;29;8892;-84
2022/11/14 06:21:48;;;;;;;;;63.75;51.00;;;;;14.36;52.65;100229.00;4828291;29;8913;-86
2022/11/14 06:24:36;;;;;;;;;67.00;52.50;;;;;14.40;52.35;100230.75;4819842;29;9011;-86
2022/11/14 06:27:23;;;;;;;;;68.25;53.00;;;;;14.48;52.43;100238.59;4822722;29;10486;-87
2022/11/14 06:30:12;;;;;;;;;72.50;56.25;;;;;14.55;52.29;100237.66;4843011;29;8905;-87
2022/11/14 06:33:01;;;;;;;;;72.50;55.75;;;;;14.63;52.76;100248.16;4828080;29;8913;-85
2022/11/14 06:35:51;;;;;;;;;75.00;59.50;;;;;14.33;53.34;100241.25;4849642;29;8894;-85
2022/11/14 06:38:43;;;;;;;;;73.25;57.75;;;;;13.92;54.63;100243.19;4880550;29;8869;-86
2022/11/14 06:41:34;;;;;;;;;75.67;58.33;;;;;13.20;57.49;100252.00;4912828;29;9021;-87
2022/11/14 06:44:37;;;;;;;;;60.67;51.33;;;;;13.11;58.07;100254.59;4883237;29;9009;-88
2022/11/14 06:48:01;;;;;;;;;60.67;46.33;;;;;13.61;56.64;100251.13;4854353;29;9187;-86
2022/11/14 06:50:52;;;;;;;;;79.67;62.67;;;;;13.98;55.61;100251.03;4828292;29;9096;-86
2022/11/14 06:53:41;;;;;;;;;81.00;62.67;;;;;14.27;54.70;100236.06;4836454;29;9338;-85
2022/11/14 06:56:30;;;;;;;;;75.50;60.00;;;;;14.53;54.33;100243.81;4846889;29;9369;-84
2022/11/14 06:59:18;;;;;;;;;76.00;59.00;;;;;14.75;53.18;100240.22;4821243;29;8874;-85
2022/11/14 07:02:07;;;;;;;;;77.33;60.00;;;;;14.96;53.00;100239.19;4786015;29;8982;-83
2022/11/14 07:04:57;;;;;;;;;78.00;59.67;;;;;15.17;52.26;100232.88;4809231;29;9235;-84
2022/11/14 07:07:45;;;;;;;;;74.25;58.25;;;;;15.33;52.09;100232.75;4808765;29;9156;-83
2022/11/14 07:10:32;;;;;;;;;69.50;54.25;;;;;15.50;51.31;100222.97;4807219;29;8999;-89
2022/11/14 07:13:20;;;;;;;;;73.25;57.00;;;;;15.60;51.03;100226.38;4816796;29;9029;-85
2022/11/14 07:16:08;;;;;;;;;74.00;55.00;;;;;15.61;50.90;100225.47;4830447;29;8906;-86
2022/11/14 07:18:56;;;;;;;;;73.50;58.00;;;;;15.26;51.62;100221.44;4890072;29;9069;-84
2022/11/14 07:21:47;;;;;;;;;76.00;59.33;;;;;15.55;51.19;100218.50;4888074;29;8955;-86
2022/11/14 07:24:35;;;;;;;;;72.00;58.00;;;;;15.75;51.13;100218.34;4859457;29;9140;-86
2022/11/14 07:27:22;;;;;;;;;80.00;61.67;;;;;15.93;50.61;100219.03;4865945;29;9057;-73
2022/11/14 07:30:10;;;;;;;;;74.00;58.67;;;;;16.10;50.00;100218.81;4855119;29;9203;-73
2022/11/14 07:32:58;;;;;;;;;80.25;63.75;;;;;16.07;49.73;100219.75;4843910;29;9125;-74
2022/11/14 07:35:45;;;;;;;;;59.67;49.33;;;;;16.29;49.97;100208.94;4845633;29;9623;-77
2022/11/14 07:38:34;;;;;;;;;73.67;57.00;;;;;16.51;49.25;100209.53;4838289;29;9143;-82
2022/11/14 07:41:21;;;;;;;;;78.00;64.00;;;;;16.42;49.21;100209.66;4871797;29;8986;-81
2022/11/14 07:44:09;;;;;;;;;79.75;65.25;;;;;15.85;50.84;100213.00;4874155;29;9156;-83
2022/11/14 07:46:56;;;;;;;;;69.67;56.33;;;;;16.37;50.26;100205.31;4875159;29;9612;-79
2022/11/14 07:49:44;;;;;;;;;74.75;58.75;;;;;16.64;49.55;100211.09;4838892;29;9034;-79
2022/11/14 07:52:32;;;;;;;;;75.00;58.00;;;;;16.85;48.85;100204.66;4843078;29;8882;-79
2022/11/14 07:55:21;;;;;;;;;74.67;58.33;;;;;17.08;48.52;100206.03;4872576;29;9373;-82
2022/11/14 07:58:08;;;;;;;;;105.00;95.50;;;;;17.24;47.50;100202.25;4872527;29;9309;-80
2022/11/14 08:00:55;;;;;;;;;72.67;58.33;;;;;17.33;47.29;100195.94;4872593;29;11311;-84
2022/11/14 08:03:43;;;;;;;;;74.00;57.33;;;;;17.48;46.89;100195.66;4874028;29;9394;-81
2022/11/14 08:06:32;;;;;;;;;73.67;57.67;;;;;17.58;46.73;100198.13;4861224;29;9312;-80
2022/11/14 08:09:23;;;;;;;;;71.67;57.67;;;;;17.76;46.32;100192.50;4857070;29;9044;-82
2022/11/14 08:12:21;;;;;;;;;71.00;55.67;;;;;17.97;46.09;100193.00;4846551;29;9378;-82
2022/11/14 08:15:14;;;;;;;;;71.00;55.67;;;;;17.87;45.98;100190.56;4880590;29;9133;-81
2022/11/14 08:18:02;;;;;;;;;76.33;62.33;;;;;17.96;45.92;100191.25;4865638;29;9152;-81
2022/11/14 08:20:50;;;;;;;;;76.00;58.00;;;;;18.06;45.82;100203.38;4857114;29;9193;-82
2022/11/14 08:23:37;;;;;;;;;69.00;57.00;;;;;18.09;45.81;100203.28;4855558;29;9838;-81
2022/11/14 08:26:25;;;;;;;;;72.00;56.00;;;;;18.20;45.41;100211.00;4886184;29;9211;-79
2022/11/14 08:29:21;;;;;;;;;71.00;56.00;;;;;18.28;45.34;100202.03;4910107;29;9105;-81
2022/11/14 08:32:09;;;;;;;;;59.75;48.25;;;;;18.36;45.12;100204.50;4900280;29;9158;-83
2022/11/14 08:34:56;;;;;;;;;70.25;55.00;;;;;18.40;45.26;100210.59;4891874;29;8877;-83
2022/11/14 08:37:44;;;;;;;;;70.75;55.75;;;;;18.45;44.93;100212.22;4904634;29;8956;-81
2022/11/14 08:40:31;;;;;;;;;70.00;53.75;;;;;18.48;44.95;100212.13;4892594;29;8885;-81
2022/11/14 08:43:18;;;;;;;;;68.75;54.50;;;;;18.56;44.76;100211.97;4911670;29;8952;-82
2022/11/14 08:46:07;;;;;;;;;67.50;54.00;;;;;18.64;44.72;100212.69;4910654;29;8991;-84
2022/11/14 08:48:54;;;;;;;;;64.75;51.50;;;;;18.52;44.81;100207.66;4910744;29;8923;-82
2022/11/14 08:51:41;;;;;;;;;64.00;52.00;;;;;18.61;44.92;100211.88;4878991;29;9001;-80
2022/11/14 08:54:29;;;;;;;;;67.25;52.25;;;;;18.65;44.63;100209.13;4885032;29;8894;-81
2022/11/14 08:57:16;;;;;;;;;69.25;53.50;;;;;18.66;44.33;100202.06;4900201;29;8871;-81
2022/11/14 09:00:04;;;;;;;;;20.75;12.75;;;;;18.70;44.16;100209.03;4881913;29;8886;-81
2022/11/14 09:02:53;;;;;;;;;65.75;53.75;;;;;18.70;44.44;100201.09;4853211;29;8866;-82
2022/11/14 09:05:41;;;;;;;;;63.00;50.25;;;;;18.73;44.00;100198.38;4842129;29;8886;-83
2022/11/14 09:08:29;;;;;;;;;64.50;49.50;;;;;18.79;44.02;100200.00;4869929;29;8905;-80
2022/11/14 09:11:17;;;;;;;;;60.50;48.25;;;;;18.85;43.32;100194.63;4921358;29;8879;-81
2022/11/14 09:14:05;;;;;;;;;61.00;47.75;;;;;18.96;43.25;100189.94;4909834;29;8984;-81
2022/11/14 09:16:52;;;;;;;;;60.00;47.75;;;;;19.00;42.89;100188.94;4893417;29;8882;-82
2022/11/14 09:19:41;;;;;;;;;59.50;48.00;;;;;19.06;43.02;100178.22;4892099;29;8950;-81
2022/11/14 09:22:28;;;;;;;;;65.75;51.50;;;;;19.01;43.03;100184.53;4915408;29;9036;-81
2022/11/14 09:25:16;;;;;;;;;58.25;47.25;;;;;19.10;42.93;100184.28;4921708;29;8911;-85
2022/11/14 09:28:05;;;;;;;;;60.00;49.50;;;;;19.21;42.92;100184.03;4876322;29;8879;-81
2022/11/14 09:30:52;;;;;;;;;63.00;50.25;;;;;19.15;42.72;100177.13;4880430;29;8907;-82
2022/11/14 09:33:40;;;;;;;;;64.75;50.25;;;;;19.21;42.90;100170.81;4907119;29;8940;-81
2022/11/14 09:36:29;;;;;;;;;61.50;50.00;;;;;19.19;42.59;100164.69;4863260;29;8906;-81
2022/11/14 09:39:16;;;;;;;;;60.50;49.50;;;;;19.28;43.03;100164.44;4914562;29;8861;-79
2022/11/14 09:42:18;;;;;;;;;62.25;49.00;;;;;19.42;42.81;100164.94;4882878;29;8906;-81
2022/11/14 09:45:12;;;;;;;;;63.25;50.00;;;;;19.44;42.55;100163.13;4864200;29;8917;-79
2022/11/14 09:48:06;;;;;;;;;59.00;48.25;;;;;19.55;42.50;100154.91;4867028;29;8930;-80
2022/11/14 09:51:06;;;;;;;;;59.25;48.50;;;;;19.66;42.42;100154.59;4856684;29;10254;-79
2022/11/14 09:54:05;;;;;;;;;59.75;47.50;;;;;19.61;41.95;100157.38;4863364;29;9057;-82
2022/11/14 09:56:52;;;;;;;;;59.25;48.50;;;;;19.69;42.30;100146.56;4869323;29;8958;-79
2022/11/14 09:59:40;;;;;;;;;60.25;49.75;;;;;19.78;42.24;100148.97;4862418;29;9004;-80
2022/11/14 10:02:40;;;;;;;;;65.25;50.75;;;;;19.91;42.07;100146.00;4868900;29;8886;-82
2022/11/14 10:05:42;;;;;;;;;58.25;47.75;;;;;19.29;42.40;100143.25;4860623;29;8894;-80
2022/11/14 10:08:47;;;;;;;;;55.75;44.75;;;;;19.70;42.49;100139.47;4866539;29;8886;-79
2022/11/14 10:11:40;;;;;;;;;61.75;48.50;;;;;19.84;41.87;100134.69;4856490;29;8889;-81
2022/11/14 10:14:54;;;;;;;;;52.75;43.75;;;;;20.02;41.83;100128.00;4856476;29;9649;-82
2022/11/14 10:17:57;;;;;;;;;48.50;39.25;;;;;20.01;41.52;100131.56;4868359;29;8977;-81
2022/11/14 10:20:50;;;;;;;;;47.50;38.00;;;;;20.02;41.10;100125.38;4852814;29;8883;-81
2022/11/14 10:23:47;;;;;;;;;46.00;37.50;;;;;20.16;41.08;100120.50;4871385;29;9018;-82
2022/11/14 10:26:43;;;;;;;;;46.75;37.25;;;;;20.27;40.86;100117.53;4865979;29;8902;-85
2022/11/14 10:29:50;;;;;;;;;48.00;40.25;;;;;20.33;40.59;100114.69;4871279;29;8895;-83
2022/11/14 10:33:04;;;;;;;;;48.25;39.25;;;;;20.47;40.52;100102.78;4880562;29;8908;-79
2022/11/14 10:35:58;;;;;;;;;47.50;40.00;;;;;20.29;40.50;100107.75;4873350;29;8879;-80
2022/11/14 10:38:52;;;;;;;;;48.00;40.25;;;;;20.25;40.48;100098.16;4873744;29;8891;-80
2022/11/14 10:41:41;;;;;;;;;50.00;42.25;;;;;20.34;40.70;100103.19;4861665;29;8869;-82
2022/11/14 10:44:53;;;;;;;;;47.00;39.67;;;;;20.56;40.20;100099.81;4850643;29;8907;-79
2022/11/14 10:47:43;;;;;;;;;46.25;39.25;;;;;20.64;39.95;100097.81;4859773;29;8895;-80
2022/11/14 10:50:41;;;;;;;;;47.75;39.00;;;;;20.86;39.65;100082.06;4854004;29;8898;-81
2022/11/14 10:53:42;;;;;;;;;49.25;39.75;;;;;21.03;39.54;100090.28;4860349;29;9389;-80
2022/11/14 10:56:29;;;;;;;;;46.25;38.50;;;;;21.12;39.41;100082.94;4869939;29;8891;-81
2022/11/14 10:59:18;;;;;;;;;48.25;40.25;;;;;21.30;39.08;100068.16;4888982;29;9022;-81
2022/11/14 11:02:06;;;;;;;;;48.00;39.50;;;;;21.26;39.05;100070.03;4861380;29;8891;-82
2022/11/14 11:05:12;;;;;;;;;46.75;37.25;;;;;21.47;38.88;100064.91;4848853;29;9003;-80
2022/11/14 11:11:31;;;;;;;;;45.00;37.25;;;;;21.66;38.18;100060.63;4869970;29;8909;-82
2022/11/14 11:14:20;;;;;;;;;45.00;38.00;;;;;21.70;38.18;100058.72;4855933;29;8914;-80
2022/11/14 11:17:19;;;;;;;;;46.75;37.75;;;;;21.76;37.72;100055.84;4858576;29;8998;-81
2022/11/14 11:20:32;;;;;;;;;45.25;37.75;;;;;21.95;37.37;100050.69;4871526;29;8887;-81
2022/11/14 11:23:24;;;;;;;;;48.25;39.00;;;;;21.77;37.72;100053.13;4853348;29;8925;-81
2022/11/14 11:26:18;;;;;;;;;52.25;42.75;;;;;21.60;38.68;100048.44;4856146;29;9607;-82
2022/11/14 11:29:16;;;;;;;;;49.25;41.75;;;;;21.69;38.60;100041.09;4858643;29;8893;-81
2022/11/14 11:32:08;;;;;;;;;55.50;43.75;;;;;21.35;39.33;100035.22;4854214;29;8875;-82
2022/11/14 11:34:57;;;;;;;;;55.25;44.00;;;;;21.43;39.31;100040.22;4858935;29;8916;-81
2022/11/14 11:37:53;;;;;;;;;53.75;44.50;;;;;21.60;38.92;100035.19;4870124;29;8906;-81
2022/11/14 11:40:44;;;;;;;;;51.25;41.25;;;;;21.51;38.93;100029.38;4855240;29;8910;-83
2022/11/14 11:43:38;;;;;;;;;49.75;39.75;;;;;21.43;39.22;100030.47;4866520;29;8904;-81
2022/11/14 11:46:47;;;;;;;;;48.75;40.50;;;;;21.43;39.14;100022.50;4848062;29;8941;-80
2022/11/14 11:49:43;;;;;;;;;50.75;40.75;;;;;21.56;39.11;100024.75;4848680;29;9001;-80
2022/11/14 11:52:48;;;;;;;;;50.50;41.00;;;;;21.52;39.13;100016.03;4872104;29;8919;-81
2022/11/14 11:55:43;;;;;;;;;47.00;40.50;;;;;21.39;39.54;100017.41;4845957;29;8872;-78
2022/11/14 11:58:43;;;;;;;;;49.00;41.25;;;;;21.33;39.86;100013.19;4829156;29;8917;-82
2022/11/14 12:01:30;;;;;;;;;50.00;42.50;;;;;21.41;39.51;99995.19;4855443;29;8855;-80
2022/11/14 12:04:18;;;;;;;;;48.25;38.50;;;;;21.40;39.23;100001.44;4858105;29;8892;-81
2022/11/14 12:07:12;;;;;;;;;50.00;40.00;;;;;21.46;39.31;99994.19;4855610;29;9635;-81
2022/11/14 12:10:07;;;;;;;;;45.75;38.00;;;;;21.60;39.12;99990.06;4856957;29;8872;-80
2022/11/14 12:13:34;;;;;;;;;47.25;38.00;;;;;21.19;39.48;99991.59;4869123;29;8935;-81
2022/11/14 12:16:40;;;;;;;;;50.25;42.00;;;;;21.33;39.63;99999.06;4818301;29;8897;-81
2022/11/14 12:19:42;;;;;;;;;46.50;38.50;;;;;21.41;39.43;99989.88;4789907;29;8978;-81
2022/11/14 12:22:57;;;;;;;;;45.00;37.25;;;;;21.34;39.41;99984.84;4802525;29;9795;-80
2022/11/14 12:25:58;;;;;;;;;43.00;36.00;;;;;21.31;39.59;99985.84;4818692;29;8958;-80
2022/11/14 12:29:02;;;;;;;;;45.00;37.50;;;;;21.45;39.20;99981.84;4790726;29;8934;-80
2022/11/14 12:31:58;;;;;;;;;44.00;37.25;;;;;21.23;39.24;99974.69;4807890;29;8878;-81
2022/11/14 12:34:47;;;;;;;;;45.00;37.25;;;;;21.15;39.63;99974.97;4795167;29;8874;-79
2022/11/14 12:37:37;;;;;;;;;44.75;36.50;;;;;21.02;39.43;99984.28;4796500;29;8917;-80
2022/11/14 12:40:29;;;;;;;;;49.00;38.75;;;;;21.22;39.54;99978.25;4818300;29;8898;-81
2022/11/14 12:43:34;;;;;;;;;46.75;39.00;;;;;21.28;39.12;99978.00;4812589;29;8905;-79
2022/11/14 12:46:23;;;;;;;;;38.75;34.25;;;;;20.94;39.86;99979.25;4810385;29;8894;-80
2022/11/14 12:49:38;;;;;;;;;45.00;38.00;;;;;21.09;39.51;99969.00;4829047;29;8886;-82
2022/11/14 12:52:52;;;;;;;;;40.60;35.20;;;;;21.14;39.28;99967.06;4829078;29;8973;-81
2022/11/14 12:56:11;;;;;;;;;47.00;39.00;;;;;20.99;39.50;99965.84;4842289;29;9047;-80
2022/11/14 12:59:13;;;;;;;;;43.25;36.50;;;;;21.12;39.62;99955.66;4803323;29;8992;-81
2022/11/14 13:02:26;;;;;;;;;39.75;34.50;;;;;21.14;39.43;99961.75;4780162;29;8885;-80
2022/11/14 13:05:32;;;;;;;;;40.25;35.50;;;;;21.14;39.42;99952.00;4784471;29;9087;-82
2022/11/14 13:08:42;;;;;;;;;42.50;36.25;;;;;21.28;39.21;99954.13;4782013;29;8939;-81
2022/11/14 13:25:04;;;;;;;;;39.00;33.50;;;;;21.27;39.06;99941.81;4778618;29;8917;-79
2022/11/14 13:27:55;;;;;;;;;37.75;33.25;;;;;21.14;39.56;99936.09;4781376;29;9967;-80